Aérodrome :
LOGIN :

S'inscrire | Disclaimer

   EN    FR    IT 

 










Légende :    VFR   VFR Marginal   IFR   IFR Intensif   IFR Très Intensif
Visi : 
Plafond : 
>= 8 km
>= 3000ft
5 à 8 km
1000 à 3000 ft
1500m à 5 km
500 à 1000 ft
800 à 1500m
200 à 500 ft
< 800m
< 200 ft
Symboles :   Orages  Brouillard  Fortes neiges  Fortes précipitations  Vent > 20 kt
SIGMETs :   Divers  Orages  Givrage  Turbulence  Onde Orograph.  Cendres Volcan.






- Altitude de l'aérodrome : 18 ft


LIPC - Cervia AFB Ravenna

DERNIER METAR :
  • 201955Z 21003KT CAVOK 25/21 Q1010 RMK SKC VIS MIN 9999 WIND THR11 21003KT WIND THR29 21004KT BLU

METARs EXPIRÉS :
  • 201855Z 05005KT CAVOK 26/21 Q1009 RMK SKC VIS MIN 9999 WIND THR11 05004KT WIND THR29 06005KT BLU
  • 201755Z 04006KT CAVOK 28/20 Q1009 RMK SKC VIS MIN 9999 WIND THR11 04007KT WIND THR29 05007KT BLU
  • 201655Z 02007KT CAVOK 28/20 Q1009 RMK SKC VIS MIN 9999 WIND THR11 02009KT WIND THR29 03009KT BLU
  • 201555Z 02007KT CAVOK 29/21 Q1009 RMK SKC VIS MIN 9999 WIND THR11 02009KT WIND THR29 02009KT BLU

TAF TAF LIPC
Valide du 20 à 21h jusqu'au 21 à 06h UTC


202000Z 2021/2106 VRB03KT CAVOK



MET'MAP, la Météo Aéronautique d'un coup d'oeil ! - Copyright ORBIFLY Décembre 2007 - Disclaimer

ORBIFLY MET'MAP TEAM :

Programmation & Développement : Alexandra Zaïnal
Sur une idée originale de : Baudouin d'Aumeries
Soutien technique & logistique : Manuel Goepfert
Assistance : Marc-Olivier Méhu




SOURCES & CREDITS :

   NOAA